sensor_id;sensor_type;location;lat;lon;timestamp;P1;durP1;ratioP1;P2;durP2;ratioP2
1206;SDS011;593;53.184;8.216;2023-04-15T00:01:51;4.40;;;4.10;;
1206;SDS011;593;53.184;8.216;2023-04-15T00:04:16;6.47;;;4.17;;
1206;SDS011;593;53.184;8.216;2023-04-15T00:06:48;4.90;;;4.50;;
1206;SDS011;593;53.184;8.216;2023-04-15T00:09:17;4.87;;;4.47;;
1206;SDS011;593;53.184;8.216;2023-04-15T00:11:44;5.13;;;4.73;;
1206;SDS011;593;53.184;8.216;2023-04-15T00:14:11;4.30;;;4.00;;
1206;SDS011;593;53.184;8.216;2023-04-15T00:16:39;4.57;;;4.03;;
1206;SDS011;593;53.184;8.216;2023-04-15T00:19:05;4.83;;;4.43;;
1206;SDS011;593;53.184;8.216;2023-04-15T00:21:31;4.33;;;3.93;;
1206;SDS011;593;53.184;8.216;2023-04-15T00:23:58;4.95;;;4.55;;
1206;SDS011;593;53.184;8.216;2023-04-15T00:26:24;5.20;;;4.77;;
1206;SDS011;593;53.184;8.216;2023-04-15T00:28:49;7.10;;;4.77;;
1206;SDS011;593;53.184;8.216;2023-04-15T00:31:15;4.80;;;4.00;;
1206;SDS011;593;53.184;8.216;2023-04-15T00:33:41;5.17;;;4.70;;
1206;SDS011;593;53.184;8.216;2023-04-15T00:36:07;4.77;;;4.37;;
1206;SDS011;593;53.184;8.216;2023-04-15T00:38:35;4.63;;;4.22;;
1206;SDS011;593;53.184;8.216;2023-04-15T00:41:02;4.93;;;4.43;;
1206;SDS011;593;53.184;8.216;2023-04-15T00:43:28;5.20;;;4.80;;
1206;SDS011;593;53.184;8.216;2023-04-15T00:45:53;5.13;;;4.57;;
1206;SDS011;593;53.184;8.216;2023-04-15T00:48:22;7.47;;;5.90;;
1206;SDS011;593;53.184;8.216;2023-04-15T00:50:50;4.57;;;4.25;;
1206;SDS011;593;53.184;8.216;2023-04-15T00:53:15;5.50;;;5.00;;
1206;SDS011;593;53.184;8.216;2023-04-15T00:55:41;5.20;;;4.27;;
1206;SDS011;593;53.184;8.216;2023-04-15T00:58:07;5.63;;;4.50;;
1206;SDS011;593;53.184;8.216;2023-04-15T01:00:32;5.20;;;4.80;;
1206;SDS011;593;53.184;8.216;2023-04-15T01:02:58;6.53;;;5.10;;
1206;SDS011;593;53.184;8.216;2023-04-15T01:05:23;5.17;;;4.77;;
1206;SDS011;593;53.184;8.216;2023-04-15T01:07:49;6.30;;;5.30;;
1206;SDS011;593;53.184;8.216;2023-04-15T01:10:15;5.63;;;5.10;;
1206;SDS011;593;53.184;8.216;2023-04-15T01:12:41;4.90;;;4.40;;
1206;SDS011;593;53.184;8.216;2023-04-15T01:15:09;5.30;;;4.80;;
1206;SDS011;593;53.184;8.216;2023-04-15T01:17:35;7.20;;;5.93;;
1206;SDS011;593;53.184;8.216;2023-04-15T01:20:01;6.72;;;5.80;;
1206;SDS011;593;53.184;8.216;2023-04-15T01:22:27;7.80;;;7.00;;
1206;SDS011;593;53.184;8.216;2023-04-15T01:25:00;6.97;;;6.00;;
1206;SDS011;593;53.184;8.216;2023-04-15T01:27:40;8.87;;;7.40;;
1206;SDS011;593;53.184;8.216;2023-04-15T01:30:07;6.53;;;5.80;;
1206;SDS011;593;53.184;8.216;2023-04-15T01:32:34;7.77;;;6.60;;
1206;SDS011;593;53.184;8.216;2023-04-15T01:35:02;9.68;;;7.95;;
1206;SDS011;593;53.184;8.216;2023-04-15T01:37:28;7.75;;;6.55;;
1206;SDS011;593;53.184;8.216;2023-04-15T01:39:54;9.60;;;7.20;;
1206;SDS011;593;53.184;8.216;2023-04-15T01:42:21;9.13;;;7.15;;
1206;SDS011;593;53.184;8.216;2023-04-15T01:44:46;9.57;;;7.93;;
1206;SDS011;593;53.184;8.216;2023-04-15T01:47:12;10.40;;;8.10;;
1206;SDS011;593;53.184;8.216;2023-04-15T01:49:39;9.57;;;7.75;;
1206;SDS011;593;53.184;8.216;2023-04-15T01:52:06;11.48;;;7.93;;
1206;SDS011;593;53.184;8.216;2023-04-15T01:54:32;9.73;;;7.55;;
1206;SDS011;593;53.184;8.216;2023-04-15T01:56:57;10.20;;;7.97;;
1206;SDS011;593;53.184;8.216;2023-04-15T01:59:25;10.67;;;7.40;;
1206;SDS011;593;53.184;8.216;2023-04-15T02:01:52;9.05;;;8.10;;
1206;SDS011;593;53.184;8.216;2023-04-15T02:04:19;8.90;;;7.95;;
1206;SDS011;593;53.184;8.216;2023-04-15T02:06:45;10.87;;;9.07;;
1206;SDS011;593;53.184;8.216;2023-04-15T02:09:12;8.63;;;7.32;;
1206;SDS011;593;53.184;8.216;2023-04-15T02:11:41;9.00;;;7.68;;
1206;SDS011;593;53.184;8.216;2023-04-15T02:14:08;8.05;;;6.70;;
1206;SDS011;593;53.184;8.216;2023-04-15T02:16:35;8.63;;;6.90;;
1206;SDS011;593;53.184;8.216;2023-04-15T02:19:01;11.13;;;6.80;;
1206;SDS011;593;53.184;8.216;2023-04-15T02:21:27;8.60;;;7.55;;
1206;SDS011;593;53.184;8.216;2023-04-15T02:23:55;8.05;;;6.78;;
1206;SDS011;593;53.184;8.216;2023-04-15T02:26:22;9.55;;;7.05;;
1206;SDS011;593;53.184;8.216;2023-04-15T02:28:50;7.63;;;6.78;;
1206;SDS011;593;53.184;8.216;2023-04-15T02:31:15;8.60;;;7.03;;
1206;SDS011;593;53.184;8.216;2023-04-15T02:33:42;8.52;;;6.65;;
1206;SDS011;593;53.184;8.216;2023-04-15T02:36:08;9.37;;;6.50;;
1206;SDS011;593;53.184;8.216;2023-04-15T02:38:35;8.30;;;6.68;;
1206;SDS011;593;53.184;8.216;2023-04-15T02:41:02;9.82;;;6.45;;
1206;SDS011;593;53.184;8.216;2023-04-15T02:43:27;6.47;;;5.87;;
1206;SDS011;593;53.184;8.216;2023-04-15T02:45:52;7.67;;;5.80;;
1206;SDS011;593;53.184;8.216;2023-04-15T02:48:19;7.60;;;6.47;;
1206;SDS011;593;53.184;8.216;2023-04-15T02:50:45;11.23;;;7.87;;
1206;SDS011;593;53.184;8.216;2023-04-15T02:53:12;9.43;;;7.57;;
1206;SDS011;593;53.184;8.216;2023-04-15T02:55:39;8.35;;;7.03;;
1206;SDS011;593;53.184;8.216;2023-04-15T02:58:05;9.65;;;7.38;;
1206;SDS011;593;53.184;8.216;2023-04-15T03:00:31;8.10;;;6.80;;
1206;SDS011;593;53.184;8.216;2023-04-15T03:02:57;8.57;;;6.87;;
1206;SDS011;593;53.184;8.216;2023-04-15T03:05:26;7.68;;;6.50;;
1206;SDS011;593;53.184;8.216;2023-04-15T03:07:51;5.80;;;5.20;;
1206;SDS011;593;53.184;8.216;2023-04-15T03:10:18;7.90;;;6.30;;
1206;SDS011;593;53.184;8.216;2023-04-15T03:12:44;6.35;;;5.75;;
1206;SDS011;593;53.184;8.216;2023-04-15T03:15:10;7.67;;;6.10;;
1206;SDS011;593;53.184;8.216;2023-04-15T03:17:36;7.95;;;7.07;;
1206;SDS011;593;53.184;8.216;2023-04-15T03:20:03;7.97;;;6.63;;
1206;SDS011;593;53.184;8.216;2023-04-15T03:22:30;7.47;;;6.07;;
1206;SDS011;593;53.184;8.216;2023-04-15T03:24:56;8.38;;;5.93;;
1206;SDS011;593;53.184;8.216;2023-04-15T03:27:24;6.22;;;5.63;;
1206;SDS011;593;53.184;8.216;2023-04-15T03:29:50;9.63;;;6.30;;
1206;SDS011;593;53.184;8.216;2023-04-15T03:32:16;7.00;;;5.47;;
1206;SDS011;593;53.184;8.216;2023-04-15T03:34:43;8.40;;;5.90;;
1206;SDS011;593;53.184;8.216;2023-04-15T03:37:09;8.23;;;6.80;;
1206;SDS011;593;53.184;8.216;2023-04-15T03:39:35;6.68;;;5.50;;
1206;SDS011;593;53.184;8.216;2023-04-15T03:42:01;9.00;;;6.40;;
1206;SDS011;593;53.184;8.216;2023-04-15T03:44:27;8.17;;;5.87;;
1206;SDS011;593;53.184;8.216;2023-04-15T03:46:53;6.07;;;5.37;;
1206;SDS011;593;53.184;8.216;2023-04-15T03:49:19;9.02;;;6.82;;
1206;SDS011;593;53.184;8.216;2023-04-15T03:51:46;5.93;;;5.25;;
1206;SDS011;593;53.184;8.216;2023-04-15T03:54:12;10.50;;;6.40;;
1206;SDS011;593;53.184;8.216;2023-04-15T03:56:39;7.90;;;5.73;;
1206;SDS011;593;53.184;8.216;2023-04-15T03:59:05;7.27;;;6.10;;
1206;SDS011;593;53.184;8.216;2023-04-15T04:01:31;7.55;;;5.75;;
1206;SDS011;593;53.184;8.216;2023-04-15T04:03:56;8.50;;;6.23;;
1206;SDS011;593;53.184;8.216;2023-04-15T04:06:22;8.20;;;5.80;;
1206;SDS011;593;53.184;8.216;2023-04-15T04:08:49;7.25;;;5.30;;
1206;SDS011;593;53.184;8.216;2023-04-15T04:11:18;7.75;;;6.45;;
1206;SDS011;593;53.184;8.216;2023-04-15T04:13:46;9.50;;;6.40;;
1206;SDS011;593;53.184;8.216;2023-04-15T04:16:11;6.27;;;5.67;;
1206;SDS011;593;53.184;8.216;2023-04-15T04:18:37;7.18;;;5.38;;
1206;SDS011;593;53.184;8.216;2023-04-15T04:21:06;7.95;;;6.50;;
1206;SDS011;593;53.184;8.216;2023-04-15T04:23:32;7.00;;;6.13;;
1206;SDS011;593;53.184;8.216;2023-04-15T04:25:57;7.17;;;6.27;;
1206;SDS011;593;53.184;8.216;2023-04-15T04:28:23;9.50;;;6.63;;
1206;SDS011;593;53.184;8.216;2023-04-15T04:30:50;8.20;;;6.00;;
1206;SDS011;593;53.184;8.216;2023-04-15T04:33:18;8.27;;;7.05;;
1206;SDS011;593;53.184;8.216;2023-04-15T04:35:43;7.43;;;6.15;;
1206;SDS011;593;53.184;8.216;2023-04-15T04:38:09;7.60;;;6.10;;
1206;SDS011;593;53.184;8.216;2023-04-15T04:40:35;7.60;;;6.80;;
1206;SDS011;593;53.184;8.216;2023-04-15T04:43:01;7.57;;;6.28;;
1206;SDS011;593;53.184;8.216;2023-04-15T04:45:27;9.35;;;7.03;;
1206;SDS011;593;53.184;8.216;2023-04-15T04:47:53;7.67;;;6.27;;
1206;SDS011;593;53.184;8.216;2023-04-15T04:50:18;9.07;;;6.17;;
1206;SDS011;593;53.184;8.216;2023-04-15T04:52:45;8.10;;;6.30;;
1206;SDS011;593;53.184;8.216;2023-04-15T04:55:11;9.83;;;6.37;;
1206;SDS011;593;53.184;8.216;2023-04-15T04:57:36;8.17;;;7.37;;
1206;SDS011;593;53.184;8.216;2023-04-15T05:00:04;7.45;;;6.65;;
1206;SDS011;593;53.184;8.216;2023-04-15T05:02:33;9.00;;;6.60;;
1206;SDS011;593;53.184;8.216;2023-04-15T05:05:00;9.43;;;6.38;;
1206;SDS011;593;53.184;8.216;2023-04-15T05:07:25;6.50;;;5.50;;
1206;SDS011;593;53.184;8.216;2023-04-15T05:09:51;11.83;;;6.50;;
1206;SDS011;593;53.184;8.216;2023-04-15T05:12:17;8.27;;;6.13;;
1206;SDS011;593;53.184;8.216;2023-04-15T05:14:43;7.47;;;6.20;;
1206;SDS011;593;53.184;8.216;2023-04-15T05:17:08;8.13;;;6.13;;
1206;SDS011;593;53.184;8.216;2023-04-15T05:19:34;6.67;;;5.73;;
1206;SDS011;593;53.184;8.216;2023-04-15T05:22:00;8.10;;;6.65;;
1206;SDS011;593;53.184;8.216;2023-04-15T05:24:26;9.80;;;7.63;;
1206;SDS011;593;53.184;8.216;2023-04-15T05:26:51;8.80;;;6.73;;
1206;SDS011;593;53.184;8.216;2023-04-15T05:29:18;8.23;;;6.60;;
1206;SDS011;593;53.184;8.216;2023-04-15T05:31:44;9.38;;;7.47;;
1206;SDS011;593;53.184;8.216;2023-04-15T05:34:09;8.80;;;6.63;;
1206;SDS011;593;53.184;8.216;2023-04-15T05:36:36;9.10;;;7.17;;
1206;SDS011;593;53.184;8.216;2023-04-15T05:39:03;9.18;;;6.47;;
1206;SDS011;593;53.184;8.216;2023-04-15T05:41:30;8.20;;;6.63;;
1206;SDS011;593;53.184;8.216;2023-04-15T05:43:56;7.93;;;6.17;;
1206;SDS011;593;53.184;8.216;2023-04-15T05:46:24;7.20;;;6.40;;
1206;SDS011;593;53.184;8.216;2023-04-15T05:48:51;9.30;;;7.33;;
1206;SDS011;593;53.184;8.216;2023-04-15T05:51:16;6.90;;;6.20;;
1206;SDS011;593;53.184;8.216;2023-04-15T05:53:42;9.50;;;6.50;;
1206;SDS011;593;53.184;8.216;2023-04-15T05:56:08;9.40;;;6.50;;
1206;SDS011;593;53.184;8.216;2023-04-15T05:58:33;8.60;;;7.17;;
1206;SDS011;593;53.184;8.216;2023-04-15T06:00:58;9.00;;;6.73;;
1206;SDS011;593;53.184;8.216;2023-04-15T06:03:25;8.87;;;6.60;;
1206;SDS011;593;53.184;8.216;2023-04-15T06:05:51;8.60;;;7.70;;
1206;SDS011;593;53.184;8.216;2023-04-15T06:08:16;8.60;;;6.80;;
1206;SDS011;593;53.184;8.216;2023-04-15T06:10:42;9.17;;;6.70;;
1206;SDS011;593;53.184;8.216;2023-04-15T06:13:08;9.07;;;6.80;;
1206;SDS011;593;53.184;8.216;2023-04-15T06:15:33;9.43;;;6.93;;
1206;SDS011;593;53.184;8.216;2023-04-15T06:17:59;7.23;;;6.40;;
1206;SDS011;593;53.184;8.216;2023-04-15T06:20:25;8.67;;;6.43;;
1206;SDS011;593;53.184;8.216;2023-04-15T06:22:50;9.50;;;6.97;;
1206;SDS011;593;53.184;8.216;2023-04-15T06:25:16;8.40;;;6.87;;
1206;SDS011;593;53.184;8.216;2023-04-15T06:27:42;9.30;;;7.10;;
1206;SDS011;593;53.184;8.216;2023-04-15T06:30:07;8.97;;;6.80;;
1206;SDS011;593;53.184;8.216;2023-04-15T06:32:33;10.20;;;7.27;;
1206;SDS011;593;53.184;8.216;2023-04-15T06:34:58;9.80;;;7.13;;
1206;SDS011;593;53.184;8.216;2023-04-15T06:37:25;8.60;;;6.70;;
1206;SDS011;593;53.184;8.216;2023-04-15T06:39:50;10.33;;;7.60;;
1206;SDS011;593;53.184;8.216;2023-04-15T06:42:16;10.57;;;6.60;;
1206;SDS011;593;53.184;8.216;2023-04-15T06:44:41;10.90;;;6.90;;
1206;SDS011;593;53.184;8.216;2023-04-15T06:47:07;7.60;;;6.67;;
1206;SDS011;593;53.184;8.216;2023-04-15T06:49:33;9.67;;;6.40;;
1206;SDS011;593;53.184;8.216;2023-04-15T06:51:59;8.40;;;5.80;;
1206;SDS011;593;53.184;8.216;2023-04-15T06:54:24;8.77;;;6.47;;
1206;SDS011;593;53.184;8.216;2023-04-15T06:56:50;8.30;;;7.10;;
1206;SDS011;593;53.184;8.216;2023-04-15T06:59:16;7.20;;;5.83;;
1206;SDS011;593;53.184;8.216;2023-04-15T07:01:41;8.23;;;5.50;;
1206;SDS011;593;53.184;8.216;2023-04-15T07:04:07;5.60;;;5.00;;
1206;SDS011;593;53.184;8.216;2023-04-15T07:06:32;7.53;;;5.20;;
1206;SDS011;593;53.184;8.216;2023-04-15T07:08:57;5.60;;;4.43;;
1206;SDS011;593;53.184;8.216;2023-04-15T07:11:24;4.70;;;4.30;;
1206;SDS011;593;53.184;8.216;2023-04-15T07:13:50;5.67;;;4.83;;
1206;SDS011;593;53.184;8.216;2023-04-15T07:16:15;4.83;;;4.17;;
1206;SDS011;593;53.184;8.216;2023-04-15T07:18:41;4.90;;;4.10;;
1206;SDS011;593;53.184;8.216;2023-04-15T07:21:07;7.43;;;4.53;;
1206;SDS011;593;53.184;8.216;2023-04-15T07:23:33;6.10;;;4.43;;
1206;SDS011;593;53.184;8.216;2023-04-15T07:25:58;6.07;;;4.03;;
1206;SDS011;593;53.184;8.216;2023-04-15T07:28:24;4.33;;;3.93;;
1206;SDS011;593;53.184;8.216;2023-04-15T07:30:49;4.57;;;4.03;;
1206;SDS011;593;53.184;8.216;2023-04-15T07:33:15;4.00;;;3.60;;
1206;SDS011;593;53.184;8.216;2023-04-15T07:35:40;4.30;;;3.60;;
1206;SDS011;593;53.184;8.216;2023-04-15T07:38:06;3.20;;;2.80;;
1206;SDS011;593;53.184;8.216;2023-04-15T07:40:32;10.13;;;3.83;;
1206;SDS011;593;53.184;8.216;2023-04-15T07:42:58;4.77;;;3.80;;
1206;SDS011;593;53.184;8.216;2023-04-15T07:45:23;4.83;;;4.37;;
1206;SDS011;593;53.184;8.216;2023-04-15T07:47:49;5.43;;;3.60;;
1206;SDS011;593;53.184;8.216;2023-04-15T07:50:15;4.03;;;3.37;;
1206;SDS011;593;53.184;8.216;2023-04-15T07:52:41;4.50;;;3.07;;
1206;SDS011;593;53.184;8.216;2023-04-15T07:55:07;3.10;;;2.80;;
1206;SDS011;593;53.184;8.216;2023-04-15T07:57:36;4.53;;;3.03;;
1206;SDS011;593;53.184;8.216;2023-04-15T08:00:02;3.43;;;3.13;;
1206;SDS011;593;53.184;8.216;2023-04-15T08:02:31;4.33;;;3.20;;
1206;SDS011;593;53.184;8.216;2023-04-15T08:04:57;9.33;;;3.50;;
1206;SDS011;593;53.184;8.216;2023-04-15T08:07:22;3.57;;;3.23;;
1206;SDS011;593;53.184;8.216;2023-04-15T08:09:49;4.40;;;4.00;;
1206;SDS011;593;53.184;8.216;2023-04-15T08:12:14;4.57;;;3.90;;
1206;SDS011;593;53.184;8.216;2023-04-15T08:14:40;4.50;;;3.20;;
1206;SDS011;593;53.184;8.216;2023-04-15T08:17:05;4.97;;;2.77;;
1206;SDS011;593;53.184;8.216;2023-04-15T08:19:31;3.97;;;3.60;;
1206;SDS011;593;53.184;8.216;2023-04-15T08:21:56;3.93;;;3.57;;
1206;SDS011;593;53.184;8.216;2023-04-15T08:24:23;4.10;;;3.37;;
1206;SDS011;593;53.184;8.216;2023-04-15T08:26:50;3.30;;;3.00;;
1206;SDS011;593;53.184;8.216;2023-04-15T08:29:16;3.57;;;2.03;;
1206;SDS011;593;53.184;8.216;2023-04-15T08:31:41;3.00;;;2.40;;
1206;SDS011;593;53.184;8.216;2023-04-15T08:34:06;3.60;;;2.73;;
1206;SDS011;593;53.184;8.216;2023-04-15T08:36:32;3.07;;;2.80;;
1206;SDS011;593;53.184;8.216;2023-04-15T08:38:57;2.50;;;2.30;;
1206;SDS011;593;53.184;8.216;2023-04-15T08:41:25;3.30;;;2.70;;
1206;SDS011;593;53.184;8.216;2023-04-15T08:43:58;2.45;;;2.20;;
1206;SDS011;593;53.184;8.216;2023-04-15T08:46:27;3.30;;;2.27;;
1206;SDS011;593;53.184;8.216;2023-04-15T08:48:55;3.23;;;2.80;;
1206;SDS011;593;53.184;8.216;2023-04-15T08:51:22;2.75;;;2.50;;
1206;SDS011;593;53.184;8.216;2023-04-15T08:53:48;3.33;;;2.60;;
1206;SDS011;593;53.184;8.216;2023-04-15T08:56:14;4.70;;;2.33;;
1206;SDS011;593;53.184;8.216;2023-04-15T08:58:44;1.53;;;1.37;;
1206;SDS011;593;53.184;8.216;2023-04-15T09:01:11;3.03;;;1.50;;
1206;SDS011;593;53.184;8.216;2023-04-15T09:03:37;1.87;;;1.77;;
1206;SDS011;593;53.184;8.216;2023-04-15T09:06:03;2.43;;;2.23;;
1206;SDS011;593;53.184;8.216;2023-04-15T09:08:30;2.33;;;2.13;;
1206;SDS011;593;53.184;8.216;2023-04-15T09:10:55;2.30;;;2.10;;
1206;SDS011;593;53.184;8.216;2023-04-15T09:13:21;2.20;;;2.03;;
1206;SDS011;593;53.184;8.216;2023-04-15T09:15:46;5.93;;;3.20;;
1206;SDS011;593;53.184;8.216;2023-04-15T09:18:12;2.00;;;1.90;;
1206;SDS011;593;53.184;8.216;2023-04-15T09:20:50;3.60;;;2.13;;
1206;SDS011;593;53.184;8.216;2023-04-15T09:23:17;2.10;;;1.90;;
1206;SDS011;593;53.184;8.216;2023-04-15T09:25:42;2.93;;;1.77;;
1206;SDS011;593;53.184;8.216;2023-04-15T09:28:08;6.00;;;2.20;;
1206;SDS011;593;53.184;8.216;2023-04-15T09:30:34;2.47;;;2.30;;
1206;SDS011;593;53.184;8.216;2023-04-15T09:33:01;2.00;;;1.80;;
1206;SDS011;593;53.184;8.216;2023-04-15T09:35:28;7.03;;;3.20;;
1206;SDS011;593;53.184;8.216;2023-04-15T09:38:07;5.83;;;2.13;;
1206;SDS011;593;53.184;8.216;2023-04-15T09:40:40;3.95;;;3.10;;
1206;SDS011;593;53.184;8.216;2023-04-15T09:43:06;1.97;;;1.83;;
1206;SDS011;593;53.184;8.216;2023-04-15T09:45:33;2.67;;;2.10;;
1206;SDS011;593;53.184;8.216;2023-04-15T09:50:49;1.80;;;1.70;;
1206;SDS011;593;53.184;8.216;2023-04-15T09:53:20;3.30;;;2.27;;
1206;SDS011;593;53.184;8.216;2023-04-15T09:55:51;2.50;;;1.90;;
1206;SDS011;593;53.184;8.216;2023-04-15T09:58:21;3.27;;;2.10;;
1206;SDS011;593;53.184;8.216;2023-04-15T10:00:55;2.47;;;2.00;;
1206;SDS011;593;53.184;8.216;2023-04-15T10:03:22;1.70;;;1.60;;
1206;SDS011;593;53.184;8.216;2023-04-15T10:05:52;2.00;;;1.80;;
1206;SDS011;593;53.184;8.216;2023-04-15T10:08:20;3.00;;;1.77;;
1206;SDS011;593;53.184;8.216;2023-04-15T10:10:51;1.63;;;1.40;;
1206;SDS011;593;53.184;8.216;2023-04-15T10:13:17;2.20;;;1.50;;
1206;SDS011;593;53.184;8.216;2023-04-15T10:15:46;2.10;;;1.77;;
1206;SDS011;593;53.184;8.216;2023-04-15T10:18:20;3.30;;;1.50;;
1206;SDS011;593;53.184;8.216;2023-04-15T10:20:49;3.50;;;1.40;;
1206;SDS011;593;53.184;8.216;2023-04-15T10:23:15;1.90;;;1.57;;
1206;SDS011;593;53.184;8.216;2023-04-15T10:25:41;3.30;;;1.90;;
1206;SDS011;593;53.184;8.216;2023-04-15T10:28:07;1.70;;;1.30;;
1206;SDS011;593;53.184;8.216;2023-04-15T10:30:33;1.53;;;1.40;;
1206;SDS011;593;53.184;8.216;2023-04-15T10:32:59;8.70;;;1.53;;
1206;SDS011;593;53.184;8.216;2023-04-15T10:35:27;1.73;;;1.63;;
1206;SDS011;593;53.184;8.216;2023-04-15T10:37:54;1.73;;;1.33;;
1206;SDS011;593;53.184;8.216;2023-04-15T10:40:23;1.67;;;1.57;;
1206;SDS011;593;53.184;8.216;2023-04-15T10:42:53;2.37;;;2.17;;
1206;SDS011;593;53.184;8.216;2023-04-15T10:45:20;1.40;;;1.30;;
1206;SDS011;593;53.184;8.216;2023-04-15T10:47:50;2.60;;;1.70;;
1206;SDS011;593;53.184;8.216;2023-04-15T10:50:17;1.92;;;1.80;;
1206;SDS011;593;53.184;8.216;2023-04-15T10:52:43;1.60;;;1.50;;
1206;SDS011;593;53.184;8.216;2023-04-15T10:57:44;2.23;;;2.03;;
1206;SDS011;593;53.184;8.216;2023-04-15T11:05:22;2.03;;;1.83;;
1206;SDS011;593;53.184;8.216;2023-04-15T11:08:11;2.23;;;2.03;;
1206;SDS011;593;53.184;8.216;2023-04-15T11:13:03;4.03;;;1.60;;
1206;SDS011;593;53.184;8.216;2023-04-15T11:15:33;3.37;;;1.83;;
1206;SDS011;593;53.184;8.216;2023-04-15T11:18:09;1.90;;;1.80;;
1206;SDS011;593;53.184;8.216;2023-04-15T11:20:39;1.97;;;1.77;;
1206;SDS011;593;53.184;8.216;2023-04-15T11:23:06;1.83;;;1.30;;
1206;SDS011;593;53.184;8.216;2023-04-15T11:25:33;2.03;;;1.63;;
1206;SDS011;593;53.184;8.216;2023-04-15T11:28:00;4.07;;;1.33;;
1206;SDS011;593;53.184;8.216;2023-04-15T11:30:27;1.93;;;1.83;;
1206;SDS011;593;53.184;8.216;2023-04-15T11:32:58;1.73;;;1.50;;
1206;SDS011;593;53.184;8.216;2023-04-15T11:35:24;2.33;;;2.03;;
1206;SDS011;593;53.184;8.216;2023-04-15T11:37:50;5.00;;;1.87;;
1206;SDS011;593;53.184;8.216;2023-04-15T11:40:16;1.70;;;1.30;;
1206;SDS011;593;53.184;8.216;2023-04-15T11:42:46;1.70;;;1.60;;
1206;SDS011;593;53.184;8.216;2023-04-15T11:45:13;2.80;;;1.87;;
1206;SDS011;593;53.184;8.216;2023-04-15T11:47:40;3.00;;;2.40;;
1206;SDS011;593;53.184;8.216;2023-04-15T11:50:13;4.97;;;2.03;;
1206;SDS011;593;53.184;8.216;2023-04-15T11:52:58;3.50;;;2.43;;
1206;SDS011;593;53.184;8.216;2023-04-15T11:55:25;1.90;;;1.80;;
1206;SDS011;593;53.184;8.216;2023-04-15T12:00:37;2.00;;;1.80;;
1206;SDS011;593;53.184;8.216;2023-04-15T12:03:10;3.20;;;2.90;;
1206;SDS011;593;53.184;8.216;2023-04-15T12:11:12;4.07;;;3.37;;
1206;SDS011;593;53.184;8.216;2023-04-15T12:13:37;5.37;;;3.30;;
1206;SDS011;593;53.184;8.216;2023-04-15T12:16:03;4.30;;;2.80;;
1206;SDS011;593;53.184;8.216;2023-04-15T12:18:28;3.30;;;2.23;;
1206;SDS011;593;53.184;8.216;2023-04-15T12:20:54;4.23;;;2.60;;
1206;SDS011;593;53.184;8.216;2023-04-15T12:23:19;4.37;;;3.43;;
1206;SDS011;593;53.184;8.216;2023-04-15T12:25:50;4.50;;;3.17;;
1206;SDS011;593;53.184;8.216;2023-04-15T12:28:16;4.50;;;3.27;;
1206;SDS011;593;53.184;8.216;2023-04-15T12:30:49;4.50;;;3.27;;
1206;SDS011;593;53.184;8.216;2023-04-15T12:33:18;4.43;;;3.70;;
1206;SDS011;593;53.184;8.216;2023-04-15T12:35:43;9.20;;;5.77;;
1206;SDS011;593;53.184;8.216;2023-04-15T12:38:08;4.63;;;3.97;;
1206;SDS011;593;53.184;8.216;2023-04-15T12:40:34;11.07;;;6.27;;
1206;SDS011;593;53.184;8.216;2023-04-15T12:43:00;9.47;;;6.07;;
1206;SDS011;593;53.184;8.216;2023-04-15T12:45:25;8.70;;;5.10;;
1206;SDS011;593;53.184;8.216;2023-04-15T12:47:51;8.37;;;5.50;;
1206;SDS011;593;53.184;8.216;2023-04-15T12:50:16;9.40;;;6.00;;
1206;SDS011;593;53.184;8.216;2023-04-15T12:52:42;11.20;;;6.60;;
1206;SDS011;593;53.184;8.216;2023-04-15T12:55:07;9.57;;;6.67;;
1206;SDS011;593;53.184;8.216;2023-04-15T12:57:33;7.47;;;6.67;;
1206;SDS011;593;53.184;8.216;2023-04-15T12:59:58;7.87;;;6.30;;
1206;SDS011;593;53.184;8.216;2023-04-15T13:02:23;14.97;;;7.83;;
1206;SDS011;593;53.184;8.216;2023-04-15T13:04:52;13.50;;;8.53;;
1206;SDS011;593;53.184;8.216;2023-04-15T13:07:17;13.70;;;8.23;;
1206;SDS011;593;53.184;8.216;2023-04-15T13:09:43;14.33;;;8.10;;
1206;SDS011;593;53.184;8.216;2023-04-15T13:12:08;17.90;;;8.57;;
1206;SDS011;593;53.184;8.216;2023-04-15T13:14:34;14.23;;;8.80;;
1206;SDS011;593;53.184;8.216;2023-04-15T13:16:59;15.13;;;9.47;;
1206;SDS011;593;53.184;8.216;2023-04-15T13:19:25;14.83;;;9.80;;
1206;SDS011;593;53.184;8.216;2023-04-15T13:21:50;15.77;;;10.13;;
1206;SDS011;593;53.184;8.216;2023-04-15T13:24:16;18.23;;;9.43;;
1206;SDS011;593;53.184;8.216;2023-04-15T13:26:41;19.07;;;10.33;;
1206;SDS011;593;53.184;8.216;2023-04-15T13:29:07;16.13;;;10.53;;
1206;SDS011;593;53.184;8.216;2023-04-15T13:31:32;16.13;;;9.60;;
1206;SDS011;593;53.184;8.216;2023-04-15T13:33:57;16.10;;;10.40;;
1206;SDS011;593;53.184;8.216;2023-04-15T13:36:23;16.70;;;10.27;;
1206;SDS011;593;53.184;8.216;2023-04-15T13:38:48;20.20;;;9.77;;
1206;SDS011;593;53.184;8.216;2023-04-15T13:41:13;19.90;;;11.03;;
1206;SDS011;593;53.184;8.216;2023-04-15T13:43:39;21.97;;;10.50;;
1206;SDS011;593;53.184;8.216;2023-04-15T13:46:04;28.10;;;12.60;;
1206;SDS011;593;53.184;8.216;2023-04-15T13:48:30;20.93;;;10.90;;
1206;SDS011;593;53.184;8.216;2023-04-15T13:50:55;22.30;;;12.07;;
1206;SDS011;593;53.184;8.216;2023-04-15T13:53:20;22.93;;;11.30;;
1206;SDS011;593;53.184;8.216;2023-04-15T13:55:46;25.83;;;12.90;;
1206;SDS011;593;53.184;8.216;2023-04-15T13:58:11;19.90;;;12.00;;
1206;SDS011;593;53.184;8.216;2023-04-15T14:00:36;20.67;;;12.03;;
1206;SDS011;593;53.184;8.216;2023-04-15T14:03:02;22.90;;;12.60;;
1206;SDS011;593;53.184;8.216;2023-04-15T14:05:27;19.40;;;11.43;;
1206;SDS011;593;53.184;8.216;2023-04-15T14:07:53;21.97;;;11.67;;
1206;SDS011;593;53.184;8.216;2023-04-15T14:10:18;22.40;;;12.80;;
1206;SDS011;593;53.184;8.216;2023-04-15T14:12:44;23.53;;;13.90;;
1206;SDS011;593;53.184;8.216;2023-04-15T14:15:09;25.50;;;13.47;;
1206;SDS011;593;53.184;8.216;2023-04-15T14:17:35;27.60;;;13.53;;
1206;SDS011;593;53.184;8.216;2023-04-15T14:20:00;23.03;;;14.27;;
1206;SDS011;593;53.184;8.216;2023-04-15T14:22:26;28.63;;;14.60;;
1206;SDS011;593;53.184;8.216;2023-04-15T14:25:00;26.35;;;14.80;;
1206;SDS011;593;53.184;8.216;2023-04-15T14:27:25;25.93;;;14.83;;
1206;SDS011;593;53.184;8.216;2023-04-15T14:29:51;30.60;;;16.80;;
1206;SDS011;593;53.184;8.216;2023-04-15T14:32:23;32.00;;;17.47;;
1206;SDS011;593;53.184;8.216;2023-04-15T14:34:54;31.47;;;18.40;;
1206;SDS011;593;53.184;8.216;2023-04-15T14:37:22;33.47;;;18.57;;
1206;SDS011;593;53.184;8.216;2023-04-15T14:39:55;28.47;;;17.50;;
1206;SDS011;593;53.184;8.216;2023-04-15T14:42:23;33.77;;;19.40;;
1206;SDS011;593;53.184;8.216;2023-04-15T14:44:50;30.53;;;19.07;;
1206;SDS011;593;53.184;8.216;2023-04-15T14:47:16;30.40;;;19.10;;
1206;SDS011;593;53.184;8.216;2023-04-15T14:49:43;33.13;;;20.07;;
1206;SDS011;593;53.184;8.216;2023-04-15T14:52:09;35.33;;;20.77;;
1206;SDS011;593;53.184;8.216;2023-04-15T14:54:41;33.07;;;20.37;;
1206;SDS011;593;53.184;8.216;2023-04-15T14:57:12;31.23;;;22.20;;
1206;SDS011;593;53.184;8.216;2023-04-15T14:59:38;28.33;;;19.30;;
1206;SDS011;593;53.184;8.216;2023-04-15T15:02:04;28.83;;;19.30;;
1206;SDS011;593;53.184;8.216;2023-04-15T15:04:35;34.33;;;21.03;;
1206;SDS011;593;53.184;8.216;2023-04-15T15:07:07;35.43;;;22.30;;
1206;SDS011;593;53.184;8.216;2023-04-15T15:09:33;30.27;;;21.57;;
1206;SDS011;593;53.184;8.216;2023-04-15T15:11:58;32.77;;;21.60;;
1206;SDS011;593;53.184;8.216;2023-04-15T15:14:23;31.13;;;21.33;;
1206;SDS011;593;53.184;8.216;2023-04-15T15:16:49;30.10;;;23.20;;
1206;SDS011;593;53.184;8.216;2023-04-15T15:19:14;31.73;;;21.10;;
1206;SDS011;593;53.184;8.216;2023-04-15T15:21:40;34.37;;;23.30;;
1206;SDS011;593;53.184;8.216;2023-04-15T15:24:05;30.33;;;21.90;;
1206;SDS011;593;53.184;8.216;2023-04-15T15:26:30;36.17;;;21.90;;
1206;SDS011;593;53.184;8.216;2023-04-15T15:28:56;30.60;;;20.97;;
1206;SDS011;593;53.184;8.216;2023-04-15T15:31:21;30.60;;;24.37;;
1206;SDS011;593;53.184;8.216;2023-04-15T15:33:46;32.60;;;24.00;;
1206;SDS011;593;53.184;8.216;2023-04-15T15:36:12;32.10;;;22.50;;
1206;SDS011;593;53.184;8.216;2023-04-15T15:38:38;33.57;;;20.73;;
1206;SDS011;593;53.184;8.216;2023-04-15T15:41:04;30.37;;;20.67;;
1206;SDS011;593;53.184;8.216;2023-04-15T15:43:29;32.80;;;23.70;;